sensor_id;sensor_type;location;lat;lon;timestamp;temperature;humidity
20526;DHT22;10421;49.142;9.232;2023-06-05T00:01:15;21.50;45.90
20526;DHT22;10421;49.142;9.232;2023-06-05T00:03:43;21.40;46.10
20526;DHT22;10421;49.142;9.232;2023-06-05T00:06:10;21.40;46.20
20526;DHT22;10421;49.142;9.232;2023-06-05T00:08:38;21.40;46.40
20526;DHT22;10421;49.142;9.232;2023-06-05T00:11:04;21.40;46.50
20526;DHT22;10421;49.142;9.232;2023-06-05T00:13:31;21.40;46.60
20526;DHT22;10421;49.142;9.232;2023-06-05T00:15:58;21.40;46.60
20526;DHT22;10421;49.142;9.232;2023-06-05T00:18:28;21.30;46.70
20526;DHT22;10421;49.142;9.232;2023-06-05T00:20:55;21.20;46.90
20526;DHT22;10421;49.142;9.232;2023-06-05T00:23:21;21.20;47.00
20526;DHT22;10421;49.142;9.232;2023-06-05T00:25:49;21.20;47.10
20526;DHT22;10421;49.142;9.232;2023-06-05T00:28:16;21.10;47.10
20526;DHT22;10421;49.142;9.232;2023-06-05T00:30:43;21.20;47.40
20526;DHT22;10421;49.142;9.232;2023-06-05T00:33:09;21.10;47.50
20526;DHT22;10421;49.142;9.232;2023-06-05T00:35:36;21.00;47.50
20526;DHT22;10421;49.142;9.232;2023-06-05T00:38:03;21.00;47.60
20526;DHT22;10421;49.142;9.232;2023-06-05T00:40:32;21.00;47.80
20526;DHT22;10421;49.142;9.232;2023-06-05T00:43:00;20.90;47.80
20526;DHT22;10421;49.142;9.232;2023-06-05T00:45:27;20.90;47.80
20526;DHT22;10421;49.142;9.232;2023-06-05T00:47:54;20.90;47.80
20526;DHT22;10421;49.142;9.232;2023-06-05T00:50:21;20.90;48.50
20526;DHT22;10421;49.142;9.232;2023-06-05T00:52:48;20.90;48.00
20526;DHT22;10421;49.142;9.232;2023-06-05T00:55:16;20.90;48.20
20526;DHT22;10421;49.142;9.232;2023-06-05T00:57:43;20.80;48.20
20526;DHT22;10421;49.142;9.232;2023-06-05T01:00:14;20.80;48.20
20526;DHT22;10421;49.142;9.232;2023-06-05T01:02:41;20.70;48.20
20526;DHT22;10421;49.142;9.232;2023-06-05T01:05:08;20.70;48.30
20526;DHT22;10421;49.142;9.232;2023-06-05T01:07:35;20.70;48.40
20526;DHT22;10421;49.142;9.232;2023-06-05T01:10:05;20.60;48.30
20526;DHT22;10421;49.142;9.232;2023-06-05T01:12:38;20.60;48.20
20526;DHT22;10421;49.142;9.232;2023-06-05T01:15:06;20.70;48.30
20526;DHT22;10421;49.142;9.232;2023-06-05T01:17:35;20.70;48.30
20526;DHT22;10421;49.142;9.232;2023-06-05T01:20:03;20.70;48.30
20526;DHT22;10421;49.142;9.232;2023-06-05T01:22:33;20.70;48.40
20526;DHT22;10421;49.142;9.232;2023-06-05T01:25:02;20.70;48.40
20526;DHT22;10421;49.142;9.232;2023-06-05T01:27:32;20.70;48.50
20526;DHT22;10421;49.142;9.232;2023-06-05T01:30:03;20.70;48.50
20526;DHT22;10421;49.142;9.232;2023-06-05T01:32:37;20.70;48.50
20526;DHT22;10421;49.142;9.232;2023-06-05T01:35:06;20.70;48.50
20526;DHT22;10421;49.142;9.232;2023-06-05T01:37:34;20.70;48.50
20526;DHT22;10421;49.142;9.232;2023-06-05T01:40:11;20.70;48.60
20526;DHT22;10421;49.142;9.232;2023-06-05T01:42:40;20.60;48.70
20526;DHT22;10421;49.142;9.232;2023-06-05T01:45:08;20.50;48.70
20526;DHT22;10421;49.142;9.232;2023-06-05T01:47:36;20.50;48.90
20526;DHT22;10421;49.142;9.232;2023-06-05T01:50:04;20.40;48.90
20526;DHT22;10421;49.142;9.232;2023-06-05T01:52:33;20.40;49.00
20526;DHT22;10421;49.142;9.232;2023-06-05T01:55:00;20.40;49.20
20526;DHT22;10421;49.142;9.232;2023-06-05T01:57:29;20.30;49.20
20526;DHT22;10421;49.142;9.232;2023-06-05T01:59:56;20.30;49.20
20526;DHT22;10421;49.142;9.232;2023-06-05T02:02:23;20.30;49.20
20526;DHT22;10421;49.142;9.232;2023-06-05T02:04:50;20.30;49.30
20526;DHT22;10421;49.142;9.232;2023-06-05T02:07:19;20.30;49.30
20526;DHT22;10421;49.142;9.232;2023-06-05T02:09:46;20.30;49.30
20526;DHT22;10421;49.142;9.232;2023-06-05T02:12:14;20.30;49.40
20526;DHT22;10421;49.142;9.232;2023-06-05T02:14:42;20.30;49.40
20526;DHT22;10421;49.142;9.232;2023-06-05T02:17:10;20.30;49.40
20526;DHT22;10421;49.142;9.232;2023-06-05T02:19:38;20.20;49.40
20526;DHT22;10421;49.142;9.232;2023-06-05T02:22:05;20.20;49.50
20526;DHT22;10421;49.142;9.232;2023-06-05T02:24:32;20.10;49.50
20526;DHT22;10421;49.142;9.232;2023-06-05T02:26:59;20.10;49.60
20526;DHT22;10421;49.142;9.232;2023-06-05T02:29:26;20.00;49.70
20526;DHT22;10421;49.142;9.232;2023-06-05T02:31:54;20.00;49.80
20526;DHT22;10421;49.142;9.232;2023-06-05T02:34:20;20.00;49.90
20526;DHT22;10421;49.142;9.232;2023-06-05T02:36:47;20.00;50.00
20526;DHT22;10421;49.142;9.232;2023-06-05T02:39:15;19.90;50.00
20526;DHT22;10421;49.142;9.232;2023-06-05T02:41:43;19.90;49.90
20526;DHT22;10421;49.142;9.232;2023-06-05T02:44:10;19.90;50.00
20526;DHT22;10421;49.142;9.232;2023-06-05T02:46:36;19.90;50.00
20526;DHT22;10421;49.142;9.232;2023-06-05T02:49:04;19.90;50.00
20526;DHT22;10421;49.142;9.232;2023-06-05T02:51:31;19.80;50.00
20526;DHT22;10421;49.142;9.232;2023-06-05T02:53:58;19.80;50.00
20526;DHT22;10421;49.142;9.232;2023-06-05T02:56:24;19.80;50.10
20526;DHT22;10421;49.142;9.232;2023-06-05T02:58:52;19.80;50.10
20526;DHT22;10421;49.142;9.232;2023-06-05T03:01:18;19.80;50.20
20526;DHT22;10421;49.142;9.232;2023-06-05T03:03:47;19.70;50.20
20526;DHT22;10421;49.142;9.232;2023-06-05T03:06:15;19.70;50.20
20526;DHT22;10421;49.142;9.232;2023-06-05T03:08:44;19.70;50.10
20526;DHT22;10421;49.142;9.232;2023-06-05T03:11:11;19.70;50.10
20526;DHT22;10421;49.142;9.232;2023-06-05T03:13:37;19.70;50.20
20526;DHT22;10421;49.142;9.232;2023-06-05T03:16:04;19.70;50.10
20526;DHT22;10421;49.142;9.232;2023-06-05T03:18:32;19.70;50.10
20526;DHT22;10421;49.142;9.232;2023-06-05T03:20:59;19.60;49.90
20526;DHT22;10421;49.142;9.232;2023-06-05T03:23:28;19.60;50.00
20526;DHT22;10421;49.142;9.232;2023-06-05T03:25:55;19.60;50.00
20526;DHT22;10421;49.142;9.232;2023-06-05T03:28:23;19.50;50.10
20526;DHT22;10421;49.142;9.232;2023-06-05T03:30:50;19.50;50.20
20526;DHT22;10421;49.142;9.232;2023-06-05T03:33:17;19.40;50.10
20526;DHT22;10421;49.142;9.232;2023-06-05T03:35:43;19.40;50.30
20526;DHT22;10421;49.142;9.232;2023-06-05T03:38:12;19.40;50.40
20526;DHT22;10421;49.142;9.232;2023-06-05T03:40:40;19.40;50.50
20526;DHT22;10421;49.142;9.232;2023-06-05T03:43:07;19.40;50.60
20526;DHT22;10421;49.142;9.232;2023-06-05T03:45:35;19.40;50.60
20526;DHT22;10421;49.142;9.232;2023-06-05T03:48:02;19.30;50.60
20526;DHT22;10421;49.142;9.232;2023-06-05T03:50:29;19.30;50.90
20526;DHT22;10421;49.142;9.232;2023-06-05T03:52:57;19.30;51.00
20526;DHT22;10421;49.142;9.232;2023-06-05T03:55:29;19.30;51.00
20526;DHT22;10421;49.142;9.232;2023-06-05T03:58:08;19.30;51.10
20526;DHT22;10421;49.142;9.232;2023-06-05T04:00:35;19.30;51.30
20526;DHT22;10421;49.142;9.232;2023-06-05T04:03:02;19.20;51.20
20526;DHT22;10421;49.142;9.232;2023-06-05T04:05:29;19.30;51.30
20526;DHT22;10421;49.142;9.232;2023-06-05T04:07:56;19.30;51.30
20526;DHT22;10421;49.142;9.232;2023-06-05T04:10:23;19.40;51.30
20526;DHT22;10421;49.142;9.232;2023-06-05T04:12:50;19.40;51.30
20526;DHT22;10421;49.142;9.232;2023-06-05T04:15:18;19.30;51.00
20526;DHT22;10421;49.142;9.232;2023-06-05T04:17:45;19.30;50.90
20526;DHT22;10421;49.142;9.232;2023-06-05T04:20:12;19.30;50.80
20526;DHT22;10421;49.142;9.232;2023-06-05T04:22:40;19.20;50.60
20526;DHT22;10421;49.142;9.232;2023-06-05T04:25:07;19.20;50.50
20526;DHT22;10421;49.142;9.232;2023-06-05T04:27:36;19.20;50.60
20526;DHT22;10421;49.142;9.232;2023-06-05T04:30:03;19.20;50.70
20526;DHT22;10421;49.142;9.232;2023-06-05T04:32:32;19.20;50.90
20526;DHT22;10421;49.142;9.232;2023-06-05T04:34:59;19.20;50.80
20526;DHT22;10421;49.142;9.232;2023-06-05T04:37:26;19.20;50.90
20526;DHT22;10421;49.142;9.232;2023-06-05T04:39:53;19.20;51.00
20526;DHT22;10421;49.142;9.232;2023-06-05T04:42:20;19.20;51.10
20526;DHT22;10421;49.142;9.232;2023-06-05T04:44:53;19.20;51.10
20526;DHT22;10421;49.142;9.232;2023-06-05T04:47:22;19.30;51.10
20526;DHT22;10421;49.142;9.232;2023-06-05T04:49:50;19.30;51.20
20526;DHT22;10421;49.142;9.232;2023-06-05T04:52:18;19.40;51.20
20526;DHT22;10421;49.142;9.232;2023-06-05T04:54:46;19.40;50.80
20526;DHT22;10421;49.142;9.232;2023-06-05T04:57:13;19.40;50.80
20526;DHT22;10421;49.142;9.232;2023-06-05T04:59:41;19.30;50.80
20526;DHT22;10421;49.142;9.232;2023-06-05T05:02:08;19.30;50.80
20526;DHT22;10421;49.142;9.232;2023-06-05T05:04:35;19.20;50.80
20526;DHT22;10421;49.142;9.232;2023-06-05T05:07:03;19.20;50.90
20526;DHT22;10421;49.142;9.232;2023-06-05T05:09:31;19.30;50.90
20526;DHT22;10421;49.142;9.232;2023-06-05T05:11:58;19.30;50.90
20526;DHT22;10421;49.142;9.232;2023-06-05T05:14:25;19.30;50.90
20526;DHT22;10421;49.142;9.232;2023-06-05T05:16:52;19.30;51.00
20526;DHT22;10421;49.142;9.232;2023-06-05T05:19:20;19.30;51.00
20526;DHT22;10421;49.142;9.232;2023-06-05T05:21:48;19.30;51.00
20526;DHT22;10421;49.142;9.232;2023-06-05T05:24:16;19.40;51.00
20526;DHT22;10421;49.142;9.232;2023-06-05T05:26:43;19.40;51.00
20526;DHT22;10421;49.142;9.232;2023-06-05T05:29:09;19.40;50.90
20526;DHT22;10421;49.142;9.232;2023-06-05T05:31:36;19.40;50.70
20526;DHT22;10421;49.142;9.232;2023-06-05T05:34:03;19.30;50.50
20526;DHT22;10421;49.142;9.232;2023-06-05T05:36:30;19.40;50.60
20526;DHT22;10421;49.142;9.232;2023-06-05T05:38:58;19.40;50.50
20526;DHT22;10421;49.142;9.232;2023-06-05T05:41:26;19.40;50.40
20526;DHT22;10421;49.142;9.232;2023-06-05T05:43:53;19.40;50.50
20526;DHT22;10421;49.142;9.232;2023-06-05T05:46:20;19.50;50.50
20526;DHT22;10421;49.142;9.232;2023-06-05T05:48:47;19.50;50.40
20526;DHT22;10421;49.142;9.232;2023-06-05T05:51:13;19.50;50.30
20526;DHT22;10421;49.142;9.232;2023-06-05T05:53:40;19.50;50.20
20526;DHT22;10421;49.142;9.232;2023-06-05T05:56:07;19.60;50.20
20526;DHT22;10421;49.142;9.232;2023-06-05T05:58:35;19.60;50.30
20526;DHT22;10421;49.142;9.232;2023-06-05T06:01:01;19.60;50.40
20526;DHT22;10421;49.142;9.232;2023-06-05T06:03:28;19.70;50.50
20526;DHT22;10421;49.142;9.232;2023-06-05T06:05:55;19.70;50.40
20526;DHT22;10421;49.142;9.232;2023-06-05T06:08:22;19.70;50.30
20526;DHT22;10421;49.142;9.232;2023-06-05T06:10:50;19.80;50.40
20526;DHT22;10421;49.142;9.232;2023-06-05T06:16:32;20.00;50.40
20526;DHT22;10421;49.142;9.232;2023-06-05T06:18:59;20.00;50.10
20526;DHT22;10421;49.142;9.232;2023-06-05T06:21:26;20.10;50.20
20526;DHT22;10421;49.142;9.232;2023-06-05T06:23:52;20.10;50.30
20526;DHT22;10421;49.142;9.232;2023-06-05T06:26:20;20.10;50.50
20526;DHT22;10421;49.142;9.232;2023-06-05T06:28:46;20.20;50.40
20526;DHT22;10421;49.142;9.232;2023-06-05T06:31:13;20.20;50.30
20526;DHT22;10421;49.142;9.232;2023-06-05T06:33:41;20.30;50.40
20526;DHT22;10421;49.142;9.232;2023-06-05T06:36:09;20.30;50.40
20526;DHT22;10421;49.142;9.232;2023-06-05T06:38:37;20.40;50.30
20526;DHT22;10421;49.142;9.232;2023-06-05T06:41:04;20.50;50.20
20526;DHT22;10421;49.142;9.232;2023-06-05T06:43:31;20.60;50.20
20526;DHT22;10421;49.142;9.232;2023-06-05T06:45:57;20.60;50.20
20526;DHT22;10421;49.142;9.232;2023-06-05T06:48:25;20.60;50.10
20526;DHT22;10421;49.142;9.232;2023-06-05T06:50:53;20.70;50.00
20526;DHT22;10421;49.142;9.232;2023-06-05T06:53:20;20.80;50.00
20526;DHT22;10421;49.142;9.232;2023-06-05T06:55:47;20.90;50.00
20526;DHT22;10421;49.142;9.232;2023-06-05T06:58:14;21.00;50.10
20526;DHT22;10421;49.142;9.232;2023-06-05T07:00:40;21.10;50.00
20526;DHT22;10421;49.142;9.232;2023-06-05T07:03:08;21.10;50.20
20526;DHT22;10421;49.142;9.232;2023-06-05T07:05:35;21.20;50.20
20526;DHT22;10421;49.142;9.232;2023-06-05T07:08:03;21.30;50.40
20526;DHT22;10421;49.142;9.232;2023-06-05T07:10:30;21.40;50.10
20526;DHT22;10421;49.142;9.232;2023-06-05T07:12:56;21.40;50.00
20526;DHT22;10421;49.142;9.232;2023-06-05T07:15:23;21.50;50.00
20526;DHT22;10421;49.142;9.232;2023-06-05T07:17:50;21.60;50.20
20526;DHT22;10421;49.142;9.232;2023-06-05T07:20:16;21.70;50.20
20526;DHT22;10421;49.142;9.232;2023-06-05T07:22:44;21.70;50.10
20526;DHT22;10421;49.142;9.232;2023-06-05T07:25:13;21.80;50.20
20526;DHT22;10421;49.142;9.232;2023-06-05T07:27:41;21.90;50.20
20526;DHT22;10421;49.142;9.232;2023-06-05T07:30:10;22.00;50.30
20526;DHT22;10421;49.142;9.232;2023-06-05T07:32:38;22.10;50.40
20526;DHT22;10421;49.142;9.232;2023-06-05T07:35:05;22.30;50.40
20526;DHT22;10421;49.142;9.232;2023-06-05T07:37:32;22.40;50.30
20526;DHT22;10421;49.142;9.232;2023-06-05T07:39:59;22.50;50.20
20526;DHT22;10421;49.142;9.232;2023-06-05T07:42:27;22.50;50.20
20526;DHT22;10421;49.142;9.232;2023-06-05T07:44:54;22.60;50.30
20526;DHT22;10421;49.142;9.232;2023-06-05T07:47:21;22.60;50.30
20526;DHT22;10421;49.142;9.232;2023-06-05T07:49:56;22.70;50.40
20526;DHT22;10421;49.142;9.232;2023-06-05T07:52:24;22.80;50.60
20526;DHT22;10421;49.142;9.232;2023-06-05T07:54:51;22.90;50.60
20526;DHT22;10421;49.142;9.232;2023-06-05T07:57:18;23.00;50.40
20526;DHT22;10421;49.142;9.232;2023-06-05T07:59:47;23.00;50.50
20526;DHT22;10421;49.142;9.232;2023-06-05T08:02:16;23.10;50.50
20526;DHT22;10421;49.142;9.232;2023-06-05T08:04:43;23.20;50.60
20526;DHT22;10421;49.142;9.232;2023-06-05T08:07:10;23.30;50.70
20526;DHT22;10421;49.142;9.232;2023-06-05T08:09:37;23.40;50.80
20526;DHT22;10421;49.142;9.232;2023-06-05T08:12:05;23.50;50.80
20526;DHT22;10421;49.142;9.232;2023-06-05T08:14:33;23.50;50.70
20526;DHT22;10421;49.142;9.232;2023-06-05T08:17:02;23.70;50.60
20526;DHT22;10421;49.142;9.232;2023-06-05T08:19:28;23.70;50.70
20526;DHT22;10421;49.142;9.232;2023-06-05T08:21:55;23.90;50.90
20526;DHT22;10421;49.142;9.232;2023-06-05T08:24:22;23.90;50.80
20526;DHT22;10421;49.142;9.232;2023-06-05T08:26:49;24.10;50.90
20526;DHT22;10421;49.142;9.232;2023-06-05T08:29:16;24.20;50.90
20526;DHT22;10421;49.142;9.232;2023-06-05T08:31:43;24.30;50.80
20526;DHT22;10421;49.142;9.232;2023-06-05T08:34:12;24.50;50.80
20526;DHT22;10421;49.142;9.232;2023-06-05T08:36:39;24.60;50.70
20526;DHT22;10421;49.142;9.232;2023-06-05T08:39:05;24.80;50.60
20526;DHT22;10421;49.142;9.232;2023-06-05T08:41:32;24.90;50.60
20526;DHT22;10421;49.142;9.232;2023-06-05T08:44:01;25.00;50.70
20526;DHT22;10421;49.142;9.232;2023-06-05T08:46:29;25.10;50.70
20526;DHT22;10421;49.142;9.232;2023-06-05T08:48:57;25.30;50.80
20526;DHT22;10421;49.142;9.232;2023-06-05T08:51:26;25.40;50.60
20526;DHT22;10421;49.142;9.232;2023-06-05T08:53:57;25.50;50.60
20526;DHT22;10421;49.142;9.232;2023-06-05T08:56:27;25.60;50.50
20526;DHT22;10421;49.142;9.232;2023-06-05T08:58:57;25.70;50.20
20526;DHT22;10421;49.142;9.232;2023-06-05T09:01:24;25.80;50.10
20526;DHT22;10421;49.142;9.232;2023-06-05T09:03:51;25.90;49.90
20526;DHT22;10421;49.142;9.232;2023-06-05T09:06:18;26.00;49.80
20526;DHT22;10421;49.142;9.232;2023-06-05T09:08:46;26.10;50.10
20526;DHT22;10421;49.142;9.232;2023-06-05T09:11:27;26.10;50.60
20526;DHT22;10421;49.142;9.232;2023-06-05T09:13:57;26.20;50.50
20526;DHT22;10421;49.142;9.232;2023-06-05T09:16:33;26.30;50.20
20526;DHT22;10421;49.142;9.232;2023-06-05T09:19:00;26.40;50.00
20526;DHT22;10421;49.142;9.232;2023-06-05T09:21:28;26.50;50.50
20526;DHT22;10421;49.142;9.232;2023-06-05T09:24:12;26.70;49.60
20526;DHT22;10421;49.142;9.232;2023-06-05T09:26:54;26.70;49.30
20526;DHT22;10421;49.142;9.232;2023-06-05T09:29:26;26.90;49.20
20526;DHT22;10421;49.142;9.232;2023-06-05T09:31:54;27.00;49.10
20526;DHT22;10421;49.142;9.232;2023-06-05T09:34:22;27.10;49.00
20526;DHT22;10421;49.142;9.232;2023-06-05T09:36:49;27.20;49.20
20526;DHT22;10421;49.142;9.232;2023-06-05T09:39:18;27.30;49.30
20526;DHT22;10421;49.142;9.232;2023-06-05T09:41:47;27.40;49.10
20526;DHT22;10421;49.142;9.232;2023-06-05T09:44:14;27.60;49.10
20526;DHT22;10421;49.142;9.232;2023-06-05T09:46:52;27.70;48.60
20526;DHT22;10421;49.142;9.232;2023-06-05T09:49:19;27.80;48.70
20526;DHT22;10421;49.142;9.232;2023-06-05T09:51:46;27.80;48.80
20526;DHT22;10421;49.142;9.232;2023-06-05T09:54:13;28.00;48.20
20526;DHT22;10421;49.142;9.232;2023-06-05T09:56:46;28.10;47.40
20526;DHT22;10421;49.142;9.232;2023-06-05T09:59:18;28.20;46.50
20526;DHT22;10421;49.142;9.232;2023-06-05T10:01:46;28.30;46.70
20526;DHT22;10421;49.142;9.232;2023-06-05T10:04:13;28.30;46.30
20526;DHT22;10421;49.142;9.232;2023-06-05T10:06:42;28.40;45.70
20526;DHT22;10421;49.142;9.232;2023-06-05T10:09:10;28.50;45.60
20526;DHT22;10421;49.142;9.232;2023-06-05T10:11:39;28.60;45.30
20526;DHT22;10421;49.142;9.232;2023-06-05T10:14:09;28.70;44.60
20526;DHT22;10421;49.142;9.232;2023-06-05T10:16:36;28.70;43.10
20526;DHT22;10421;49.142;9.232;2023-06-05T10:19:03;28.80;43.30
20526;DHT22;10421;49.142;9.232;2023-06-05T10:21:30;28.80;43.40
20526;DHT22;10421;49.142;9.232;2023-06-05T10:24:02;28.80;43.20
20526;DHT22;10421;49.142;9.232;2023-06-05T10:26:50;28.80;43.30
20526;DHT22;10421;49.142;9.232;2023-06-05T10:29:33;28.80;43.50
20526;DHT22;10421;49.142;9.232;2023-06-05T10:32:08;29.00;43.20
20526;DHT22;10421;49.142;9.232;2023-06-05T10:34:45;29.10;42.20
20526;DHT22;10421;49.142;9.232;2023-06-05T10:37:32;29.00;41.50
20526;DHT22;10421;49.142;9.232;2023-06-05T10:40:01;29.10;41.40
20526;DHT22;10421;49.142;9.232;2023-06-05T10:42:30;29.10;40.40
20526;DHT22;10421;49.142;9.232;2023-06-05T10:44:58;29.20;40.30
20526;DHT22;10421;49.142;9.232;2023-06-05T10:47:48;29.20;40.10
20526;DHT22;10421;49.142;9.232;2023-06-05T10:50:26;29.30;39.60
20526;DHT22;10421;49.142;9.232;2023-06-05T10:52:54;29.40;38.60
20526;DHT22;10421;49.142;9.232;2023-06-05T10:55:23;29.50;38.90
20526;DHT22;10421;49.142;9.232;2023-06-05T10:58:12;29.60;38.90
20526;DHT22;10421;49.142;9.232;2023-06-05T11:03:54;29.60;39.10
20526;DHT22;10421;49.142;9.232;2023-06-05T11:06:22;29.80;38.90
20526;DHT22;10421;49.142;9.232;2023-06-05T11:09:10;29.80;38.40
20526;DHT22;10421;49.142;9.232;2023-06-05T11:12:00;29.90;38.60
20526;DHT22;10421;49.142;9.232;2023-06-05T11:14:43;30.00;38.80
20526;DHT22;10421;49.142;9.232;2023-06-05T11:17:25;30.00;38.70
20526;DHT22;10421;49.142;9.232;2023-06-05T11:19:54;30.00;39.00
20526;DHT22;10421;49.142;9.232;2023-06-05T11:22:20;30.10;38.50
20526;DHT22;10421;49.142;9.232;2023-06-05T11:25:24;30.10;38.80
20526;DHT22;10421;49.142;9.232;2023-06-05T11:27:53;30.10;37.80
20526;DHT22;10421;49.142;9.232;2023-06-05T11:30:21;30.10;38.20
20526;DHT22;10421;49.142;9.232;2023-06-05T11:32:49;30.20;38.80
20526;DHT22;10421;49.142;9.232;2023-06-05T11:35:21;30.30;38.70
20526;DHT22;10421;49.142;9.232;2023-06-05T11:37:48;30.40;39.50
20526;DHT22;10421;49.142;9.232;2023-06-05T11:40:24;30.50;38.60
20526;DHT22;10421;49.142;9.232;2023-06-05T11:42:51;30.60;38.80
20526;DHT22;10421;49.142;9.232;2023-06-05T11:45:21;30.60;38.40
20526;DHT22;10421;49.142;9.232;2023-06-05T11:47:48;30.60;37.90
20526;DHT22;10421;49.142;9.232;2023-06-05T11:50:15;30.50;37.80
20526;DHT22;10421;49.142;9.232;2023-06-05T11:52:43;30.40;37.60
20526;DHT22;10421;49.142;9.232;2023-06-05T11:55:11;30.40;38.00
20526;DHT22;10421;49.142;9.232;2023-06-05T11:57:41;30.40;38.00
20526;DHT22;10421;49.142;9.232;2023-06-05T12:00:10;30.50;37.10
20526;DHT22;10421;49.142;9.232;2023-06-05T12:02:37;30.60;35.90
20526;DHT22;10421;49.142;9.232;2023-06-05T12:05:05;30.60;35.50
20526;DHT22;10421;49.142;9.232;2023-06-05T12:07:33;30.70;36.80
20526;DHT22;10421;49.142;9.232;2023-06-05T12:10:04;30.60;37.10
20526;DHT22;10421;49.142;9.232;2023-06-05T12:12:31;30.60;37.30
20526;DHT22;10421;49.142;9.232;2023-06-05T12:15:13;30.60;37.40
20526;DHT22;10421;49.142;9.232;2023-06-05T12:17:40;30.80;37.70
20526;DHT22;10421;49.142;9.232;2023-06-05T12:20:07;31.00;37.70
20526;DHT22;10421;49.142;9.232;2023-06-05T12:22:35;31.10;36.90
20526;DHT22;10421;49.142;9.232;2023-06-05T12:25:17;31.30;36.80
20526;DHT22;10421;49.142;9.232;2023-06-05T12:27:53;31.40;35.60
20526;DHT22;10421;49.142;9.232;2023-06-05T12:30:20;31.40;35.20
20526;DHT22;10421;49.142;9.232;2023-06-05T12:32:47;31.60;35.30
20526;DHT22;10421;49.142;9.232;2023-06-05T12:35:19;31.60;35.00
20526;DHT22;10421;49.142;9.232;2023-06-05T12:37:48;31.80;34.80
20526;DHT22;10421;49.142;9.232;2023-06-05T12:40:17;31.70;34.50
20526;DHT22;10421;49.142;9.232;2023-06-05T12:42:47;31.70;34.60
20526;DHT22;10421;49.142;9.232;2023-06-05T12:45:14;31.70;34.80
20526;DHT22;10421;49.142;9.232;2023-06-05T12:47:42;31.60;34.80
20526;DHT22;10421;49.142;9.232;2023-06-05T12:50:10;31.50;34.40
20526;DHT22;10421;49.142;9.232;2023-06-05T12:52:37;31.50;34.40
20526;DHT22;10421;49.142;9.232;2023-06-05T12:55:05;31.60;34.20
20526;DHT22;10421;49.142;9.232;2023-06-05T12:57:33;31.60;34.40
20526;DHT22;10421;49.142;9.232;2023-06-05T13:00:03;31.70;34.30
20526;DHT22;10421;49.142;9.232;2023-06-05T13:02:36;31.70;34.20
20526;DHT22;10421;49.142;9.232;2023-06-05T13:05:03;31.80;34.30
20526;DHT22;10421;49.142;9.232;2023-06-05T13:07:31;31.80;34.10
20526;DHT22;10421;49.142;9.232;2023-06-05T13:09:58;31.90;34.20
20526;DHT22;10421;49.142;9.232;2023-06-05T13:12:25;31.90;34.00
20526;DHT22;10421;49.142;9.232;2023-06-05T13:14:53;31.90;33.50
20526;DHT22;10421;49.142;9.232;2023-06-05T13:17:19;32.10;33.70
20526;DHT22;10421;49.142;9.232;2023-06-05T13:19:46;32.10;33.60
20526;DHT22;10421;49.142;9.232;2023-06-05T13:22:13;32.10;33.80
20526;DHT22;10421;49.142;9.232;2023-06-05T13:24:40;32.10;33.80
20526;DHT22;10421;49.142;9.232;2023-06-05T13:27:07;32.10;33.70
20526;DHT22;10421;49.142;9.232;2023-06-05T13:29:34;32.00;33.00
20526;DHT22;10421;49.142;9.232;2023-06-05T13:32:02;31.90;33.20
20526;DHT22;10421;49.142;9.232;2023-06-05T13:34:29;31.90;33.20
20526;DHT22;10421;49.142;9.232;2023-06-05T13:36:56;31.80;33.00
20526;DHT22;10421;49.142;9.232;2023-06-05T13:39:23;31.80;32.90
20526;DHT22;10421;49.142;9.232;2023-06-05T13:41:50;31.80;32.80
20526;DHT22;10421;49.142;9.232;2023-06-05T13:44:17;31.90;32.90
20526;DHT22;10421;49.142;9.232;2023-06-05T13:46:43;31.90;32.70
20526;DHT22;10421;49.142;9.232;2023-06-05T13:49:11;31.90;32.30
20526;DHT22;10421;49.142;9.232;2023-06-05T13:51:38;31.90;32.50
20526;DHT22;10421;49.142;9.232;2023-06-05T13:54:05;32.00;32.90
20526;DHT22;10421;49.142;9.232;2023-06-05T13:56:32;32.10;33.00
20526;DHT22;10421;49.142;9.232;2023-06-05T13:58:58;32.20;32.70
20526;DHT22;10421;49.142;9.232;2023-06-05T14:01:25;32.20;32.20
20526;DHT22;10421;49.142;9.232;2023-06-05T14:03:52;32.20;32.70
20526;DHT22;10421;49.142;9.232;2023-06-05T14:06:20;32.30;32.40
20526;DHT22;10421;49.142;9.232;2023-06-05T14:08:47;32.30;32.60
20526;DHT22;10421;49.142;9.232;2023-06-05T14:11:13;32.30;32.50
20526;DHT22;10421;49.142;9.232;2023-06-05T14:13:40;32.30;32.60
20526;DHT22;10421;49.142;9.232;2023-06-05T14:16:08;32.30;32.20
20526;DHT22;10421;49.142;9.232;2023-06-05T14:18:36;32.30;32.10
20526;DHT22;10421;49.142;9.232;2023-06-05T14:21:02;32.30;33.00
20526;DHT22;10421;49.142;9.232;2023-06-05T14:23:31;32.30;32.10
20526;DHT22;10421;49.142;9.232;2023-06-05T14:25:57;32.30;32.40
20526;DHT22;10421;49.142;9.232;2023-06-05T14:28:24;32.40;32.60
20526;DHT22;10421;49.142;9.232;2023-06-05T14:30:51;32.40;32.50
20526;DHT22;10421;49.142;9.232;2023-06-05T14:33:19;32.30;33.00
20526;DHT22;10421;49.142;9.232;2023-06-05T14:35:46;32.30;32.70
20526;DHT22;10421;49.142;9.232;2023-06-05T14:38:13;32.30;32.80
20526;DHT22;10421;49.142;9.232;2023-06-05T14:40:41;32.40;33.10
20526;DHT22;10421;49.142;9.232;2023-06-05T14:43:10;32.50;32.80
20526;DHT22;10421;49.142;9.232;2023-06-05T14:45:37;32.50;32.40
20526;DHT22;10421;49.142;9.232;2023-06-05T14:48:04;32.50;32.60
20526;DHT22;10421;49.142;9.232;2023-06-05T14:50:30;32.50;32.50
20526;DHT22;10421;49.142;9.232;2023-06-05T14:52:57;32.50;32.50
20526;DHT22;10421;49.142;9.232;2023-06-05T14:55:24;32.40;32.90
20526;DHT22;10421;49.142;9.232;2023-06-05T14:57:52;32.40;32.80
20526;DHT22;10421;49.142;9.232;2023-06-05T15:00:19;32.30;32.60
20526;DHT22;10421;49.142;9.232;2023-06-05T15:02:45;32.20;32.70
20526;DHT22;10421;49.142;9.232;2023-06-05T15:05:12;32.20;32.40
20526;DHT22;10421;49.142;9.232;2023-06-05T15:07:40;32.20;32.30
20526;DHT22;10421;49.142;9.232;2023-06-05T15:10:08;32.10;32.50
20526;DHT22;10421;49.142;9.232;2023-06-05T15:12:38;32.00;32.90
20526;DHT22;10421;49.142;9.232;2023-06-05T15:15:07;31.80;32.50
20526;DHT22;10421;49.142;9.232;2023-06-05T15:17:34;31.80;32.60
20526;DHT22;10421;49.142;9.232;2023-06-05T15:20:02;31.90;32.20
20526;DHT22;10421;49.142;9.232;2023-06-05T15:22:31;31.90;32.00
20526;DHT22;10421;49.142;9.232;2023-06-05T15:24:58;32.00;31.70
20526;DHT22;10421;49.142;9.232;2023-06-05T15:27:25;32.00;31.80
20526;DHT22;10421;49.142;9.232;2023-06-05T15:29:51;32.00;31.90
20526;DHT22;10421;49.142;9.232;2023-06-05T15:32:20;31.90;32.00
20526;DHT22;10421;49.142;9.232;2023-06-05T15:34:46;31.90;32.10
20526;DHT22;10421;49.142;9.232;2023-06-05T15:37:13;32.00;32.20
20526;DHT22;10421;49.142;9.232;2023-06-05T15:39:41;32.00;32.20
20526;DHT22;10421;49.142;9.232;2023-06-05T15:42:08;31.90;32.10
20526;DHT22;10421;49.142;9.232;2023-06-05T15:44:37;31.80;32.50